Time;durP1;ratioP1;P1;durP2;ratioP2;P2;SDS_P1;SDS_P2;PMS_P1;PMS_P2;Temp;Humidity;BMP_temperature;BMP_pressure;BME280_temperature;BME280_humidity;BME280_pressure;Samples;Min_cycle;Max_cycle;Signal;HPM_P1;HPM_P2
2021/11/12 00:04:23;;;;;;;421.63;32.03;;;;;;;1.73;70.02;100618.38;10387280;28;20164;-67
2021/11/12 00:14:52;;;;;;;286.27;22.58;;;;;;;1.99;69.53;100610.31;10389417;28;20068;-68
2021/11/12 00:19:54;;;;;;;275.98;26.27;;;;;;;1.98;69.65;100600.84;10389765;28;20715;-68
2021/11/12 00:24:59;;;;;;;339.17;22.83;;;;;;;1.92;69.58;100606.94;10387127;28;20573;-67
2021/11/12 00:30:22;;;;;;;489.88;28.00;;;;;;;1.95;69.60;100593.16;10389646;28;20045;-68
2021/11/12 00:45:52;;;;;;;349.80;25.00;;;;;;;1.94;69.74;100589.72;10388224;28;20050;-68
2021/11/12 00:51:08;;;;;;;197.13;19.75;;;;;;;2.00;69.69;100588.78;10388854;28;20068;-68
2021/11/12 00:56:10;;;;;;;380.23;27.25;;;;;;;1.99;69.54;100584.50;10385573;28;20133;-68
2021/11/12 01:01:13;;;;;;;562.08;32.33;;;;;;;1.97;69.51;100586.25;10387590;28;20137;-68
2021/11/12 01:06:17;;;;;;;238.63;22.15;;;;;;;1.97;69.55;100581.94;10384046;28;20076;-68
2021/11/12 01:11:21;;;;;;;152.98;20.00;;;;;;;2.10;69.67;100587.75;10388044;28;20493;-68
2021/11/12 01:16:23;;;;;;;299.42;29.95;;;;;;;2.03;69.64;100588.75;10385577;28;20419;-67
2021/11/12 01:21:25;;;;;;;426.52;27.90;;;;;;;1.97;69.56;100581.09;10387589;28;20100;-68
2021/11/12 01:26:28;;;;;;;357.55;30.65;;;;;;;2.07;69.41;100582.66;10386844;28;20133;-67
2021/11/12 01:31:30;;;;;;;389.00;32.30;;;;;;;2.12;69.68;100575.69;10387457;28;20175;-68
2021/11/12 01:36:40;;;;;;;511.65;31.83;;;;;;;2.12;69.17;100568.81;10386059;28;20056;-67
2021/11/12 01:41:47;;;;;;;205.65;23.70;;;;;;;2.09;69.27;100578.34;10385046;28;20045;-68
2021/11/12 01:52:09;;;;;;;491.73;33.72;;;;;;;2.04;69.58;100570.66;10384805;28;20123;-67
2021/11/12 02:02:42;;;;;;;693.97;42.50;;;;;;;2.29;69.33;100568.56;10331728;28;20060;-68
2021/11/12 02:07:45;;;;;;;231.45;26.33;;;;;;;2.28;69.08;100566.84;10385161;28;20196;-67
2021/11/12 02:18:07;;;;;;;277.48;22.38;;;;;;;2.13;69.16;100549.03;10384906;28;20053;-68
2021/11/12 02:23:09;;;;;;;320.65;26.88;;;;;;;2.11;69.51;100558.53;10383887;28;20516;-68
2021/11/12 02:28:14;;;;;;;561.95;34.47;;;;;;;2.08;69.28;100555.97;10385818;28;20055;-67
2021/11/12 02:33:21;;;;;;;303.85;26.98;;;;;;;2.07;69.44;100554.28;10382889;28;20593;-68
2021/11/12 02:38:23;;;;;;;341.08;31.98;;;;;;;2.06;69.56;100543.13;10384730;28;20053;-68
2021/11/12 02:43:26;;;;;;;205.02;23.85;;;;;;;2.11;69.55;100528.41;10383761;28;20053;-68
2021/11/12 02:48:29;;;;;;;290.02;21.13;;;;;;;2.15;69.53;100519.72;10385638;28;20520;-67
2021/11/12 02:53:31;;;;;;;200.05;26.00;;;;;;;2.22;69.43;100526.50;10383658;28;20055;-67
2021/11/12 02:58:33;;;;;;;259.30;28.50;;;;;;;2.22;69.35;100525.66;10382139;28;20245;-68
2021/11/12 03:03:36;;;;;;;120.65;20.27;;;;;;;2.12;69.24;100522.38;10387295;28;21613;-68
2021/11/12 03:08:38;;;;;;;174.55;25.13;;;;;;;2.09;69.48;100521.59;10388188;28;20049;-68
2021/11/12 03:13:40;;;;;;;89.20;21.00;;;;;;;2.18;69.85;100529.16;10389758;28;20053;-67
2021/11/12 03:18:42;;;;;;;160.88;26.40;;;;;;;2.37;69.33;100519.38;10389148;28;20387;-68
2021/11/12 03:23:52;;;;;;;94.85;20.42;;;;;;;2.23;69.43;100517.88;10390971;28;20581;-68
2021/11/12 05:58:02;;;;;;;56.47;14.18;;;;;;;2.40;69.93;100406.59;10387049;28;20049;-67
2021/11/12 06:03:03;;;;;;;50.10;12.75;;;;;;;2.54;69.73;100407.19;10386516;28;20410;-68
2021/11/12 06:08:05;;;;;;;78.38;14.90;;;;;;;2.58;69.31;100395.91;10384985;28;20378;-67
2021/11/12 06:13:07;;;;;;;100.10;14.60;;;;;;;2.43;69.10;100385.91;10384264;28;20084;-68
2021/11/12 06:18:10;;;;;;;141.10;19.17;;;;;;;2.08;69.88;100390.88;10385898;28;20058;-67
2021/11/12 06:23:12;;;;;;;31.05;11.20;;;;;;;2.21;70.24;100394.94;10386002;28;20049;-68
2021/11/12 06:28:14;;;;;;;35.20;11.63;;;;;;;2.29;69.97;100390.47;10385196;28;20497;-67
2021/11/12 06:33:16;;;;;;;43.63;12.70;;;;;;;2.32;69.78;100384.41;10384259;28;20053;-67
2021/11/12 06:38:21;;;;;;;52.38;13.27;;;;;;;2.57;69.59;100395.94;10384357;28;20049;-68
2021/11/12 06:53:45;;;;;;;68.93;16.30;;;;;;;2.61;69.38;100392.41;10384379;28;20479;-67
2021/11/12 06:58:47;;;;;;;31.20;12.80;;;;;;;2.75;69.43;100399.00;10400694;28;20050;-67
2021/11/12 07:03:48;;;;;;;47.67;13.18;;;;;;;2.78;68.85;100398.97;10382998;28;20128;-68
2021/11/12 07:08:50;;;;;;;169.10;13.60;;;;;;;2.60;69.03;100388.97;10381381;28;20054;-68
2021/11/12 07:13:52;;;;;;;62.03;13.93;;;;;;;2.37;69.53;100388.59;10380837;28;21015;-67
2021/11/12 07:18:56;;;;;;;57.10;14.63;;;;;;;2.45;69.43;100397.06;10399241;28;20049;-68
2021/11/12 07:23:59;;;;;;;58.53;15.35;;;;;;;2.53;69.38;100390.00;10381599;28;20056;-67
2021/11/12 07:29:01;;;;;;;76.68;18.77;;;;;;;2.58;69.18;100388.16;10383729;28;20549;-67
2021/11/12 07:34:19;;;;;;;47.83;14.88;;;;;;;2.60;69.46;100398.47;10382414;28;20115;-66
2021/11/12 07:50:00;;;;;;;76.10;17.10;;;;;;;2.55;69.50;100403.72;10383565;28;20502;-67
2021/11/12 07:55:05;;;;;;;67.57;16.27;;;;;;;2.56;69.65;100383.94;10399049;28;20076;-67
2021/11/12 08:00:09;;;;;;;40.92;15.70;;;;;;;2.79;69.65;100376.53;10382583;28;20041;-67
2021/11/12 08:05:31;;;;;;;53.17;15.32;;;;;;;2.83;69.20;100379.03;10383434;28;20071;-67
2021/11/12 08:10:38;;;;;;;45.55;14.15;;;;;;;2.85;68.98;100379.84;10373481;28;20079;-80
2021/11/12 08:15:53;;;;;;;67.53;17.08;;;;;;;2.79;69.21;100373.97;10377359;28;20049;-78
2021/11/12 08:21:04;;;;;;;30.85;14.80;;;;;;;2.80;68.78;100378.25;10379658;28;20124;-80
2021/11/12 08:36:57;;;;;;;47.17;17.67;;;;;;;2.81;68.52;100388.56;10386425;28;20057;-80
2021/11/12 08:42:05;;;;;;;37.03;15.00;;;;;;;2.91;68.17;100373.69;10390491;28;20140;-79
2021/11/12 08:47:12;;;;;;;32.38;14.77;;;;;;;2.98;68.36;100364.94;10390956;28;20412;-79
2021/11/12 08:52:16;;;;;;;30.35;14.07;;;;;;;3.17;67.92;100352.47;10387916;28;20045;-79
2021/11/12 08:57:19;;;;;;;43.05;14.70;;;;;;;3.38;67.70;100349.34;10388410;28;20451;-80
2021/11/12 09:02:25;;;;;;;28.27;14.15;;;;;;;3.49;67.41;100347.38;10390152;28;20085;-80
2021/11/12 09:07:27;;;;;;;37.13;15.20;;;;;;;3.34;67.11;100353.75;10387860;28;20065;-81
2021/11/12 09:12:29;;;;;;;24.30;13.60;;;;;;;3.18;67.71;100342.09;10390358;28;20741;-80
2021/11/12 09:17:31;;;;;;;49.20;18.10;;;;;;;3.37;67.20;100335.59;10389262;28;20138;-80
2021/11/12 09:22:53;;;;;;;;;;;;;;;2.80;67.69;100330.06;10389749;28;20215;-79
2021/11/12 09:27:55;;;;;;;27.25;15.50;;;;;;;3.09;67.84;100341.47;10389305;28;20300;-80
2021/11/12 09:32:57;;;;;;;32.63;15.60;;;;;;;3.12;67.78;100349.97;10387962;28;20617;-80
2021/11/12 09:37:59;;;;;;;37.58;18.00;;;;;;;3.11;67.78;100331.94;10387585;28;20057;-80
2021/11/12 09:43:01;;;;;;;30.45;17.48;;;;;;;3.33;67.40;100326.22;10387387;28;20049;-78
2021/11/12 09:48:03;;;;;;;26.63;15.98;;;;;;;3.33;67.30;100320.19;10387443;28;20065;-81
2021/11/12 09:53:08;;;;;;;40.20;18.13;;;;;;;3.44;66.63;100306.13;10388488;28;20057;-80
2021/11/12 09:58:10;;;;;;;46.95;21.02;;;;;;;3.16;67.16;100306.81;10381058;28;20081;-80
2021/11/12 10:03:12;;;;;;;38.17;18.60;;;;;;;3.23;67.21;100288.56;10384066;28;20057;-78
2021/11/12 10:08:33;;;;;;;45.25;19.38;;;;;;;3.31;67.46;100283.19;10384352;28;20060;-80
2021/11/12 10:13:38;;;;;;;43.90;20.45;;;;;;;3.54;66.81;100273.09;10387435;28;20891;-79
2021/11/12 10:19:11;;;;;;;32.58;17.17;;;;;;;3.36;67.28;100258.94;10387795;28;20053;-78
2021/11/12 10:24:25;;;;;;;35.03;18.67;;;;;;;3.54;67.24;100262.78;10386891;28;20045;-80
2021/11/12 10:29:31;;;;;;;40.17;21.02;;;;;;;3.60;67.36;100252.28;10380474;28;20143;-79
2021/11/12 10:34:40;;;;;;;36.95;20.35;;;;;;;3.59;67.10;100255.75;10381268;28;20064;-79
2021/11/12 10:39:57;;;;;;;33.63;19.10;;;;;;;3.62;67.32;100266.03;10384919;28;20080;-78
2021/11/12 10:45:08;;;;;;;34.42;18.92;;;;;;;3.88;66.75;100248.09;10384947;28;20049;-80
2021/11/12 10:50:10;;;;;;;36.30;20.15;;;;;;;3.72;66.90;100223.50;10384957;28;20053;-77
2021/11/12 10:55:18;;;;;;;39.70;21.08;;;;;;;4.02;66.87;100221.84;10385437;28;20136;-76
2021/11/12 11:00:23;;;;;;;45.28;22.27;;;;;;;4.10;66.42;100217.28;10382972;28;20115;-78
2021/11/12 11:05:29;;;;;;;41.55;21.50;;;;;;;4.25;66.55;100225.44;10385013;28;20052;-76
2021/11/12 11:10:31;;;;;;;42.10;22.70;;;;;;;4.30;66.17;100221.00;10383849;28;20057;-77
2021/11/12 11:15:36;;;;;;;30.30;18.58;;;;;;;4.10;66.55;100212.97;10384895;28;20053;-80
2021/11/12 11:20:38;;;;;;;34.67;20.75;;;;;;;4.21;66.56;100218.66;10384572;28;20152;-77
2021/11/12 11:25:52;;;;;;;36.40;21.45;;;;;;;4.19;66.11;100211.84;10384577;28;20046;-76
2021/11/12 11:30:54;;;;;;;40.80;22.60;;;;;;;4.29;66.37;100208.91;10381273;28;20057;-76
2021/11/12 11:35:57;;;;;;;34.63;21.08;;;;;;;4.38;66.10;100189.69;10382580;28;20076;-77
2021/11/12 11:41:01;;;;;;;44.65;22.00;;;;;;;4.40;65.87;100185.31;10374250;28;20375;-82
2021/11/12 11:46:09;;;;;;;41.53;22.63;;;;;;;4.31;65.99;100178.66;10383728;28;20142;-76
2021/11/12 11:51:34;;;;;;;45.75;23.10;;;;;;;4.13;65.77;100181.78;10383069;28;20095;-76
2021/11/12 11:56:45;;;;;;;45.97;23.65;;;;;;;4.05;66.16;100165.66;10386125;28;20057;-75
2021/11/12 12:01:49;;;;;;;39.67;21.67;;;;;;;4.11;66.39;100172.41;10383728;28;20041;-75
2021/11/12 12:07:03;;;;;;;46.92;24.08;;;;;;;4.27;66.07;100178.81;10392114;28;20056;-77
2021/11/12 12:12:07;;;;;;;50.55;24.13;;;;;;;4.41;66.37;100156.75;10387671;28;20046;-76
2021/11/12 12:17:24;;;;;;;49.85;23.48;;;;;;;4.51;65.59;100158.19;10382165;28;20050;-76
2021/11/12 13:28:36;;;;;;;51.78;26.45;;;;;;;5.16;65.05;100077.41;10387916;28;20057;-76
2021/11/12 13:33:52;;;;;;;57.63;27.92;;;;;;;5.13;65.00;100072.31;10386604;28;20629;-76
2021/11/12 13:39:08;;;;;;;53.92;28.10;;;;;;;5.01;64.74;100070.16;10385277;28;20061;-76
2021/11/12 13:44:13;;;;;;;61.22;28.42;;;;;;;4.72;65.74;100068.56;10386400;28;20049;-77
2021/11/12 13:49:29;;;;;;;53.40;28.13;;;;;;;4.65;66.05;100052.41;10388508;28;20053;-76
2021/11/12 13:54:38;;;;;;;55.33;29.48;;;;;;;4.86;66.14;100052.56;10385680;28;20471;-77
2021/11/12 14:00:05;;;;;;;57.97;29.80;;;;;;;4.82;65.68;100025.06;10386816;28;20134;-77
2021/11/12 14:05:12;;;;;;;53.83;28.40;;;;;;;4.94;65.97;100029.81;10386869;28;20049;-75
2021/11/12 14:10:17;;;;;;;57.60;28.95;;;;;;;5.16;65.47;100023.81;10386302;28;20152;-76
2021/11/12 14:15:27;;;;;;;52.72;29.17;;;;;;;5.00;65.76;100032.19;10384714;28;20057;-76
2021/11/12 14:20:33;;;;;;;50.40;27.27;;;;;;;4.75;66.33;100032.19;10387270;28;20045;-75
2021/11/12 14:26:23;;;;;;;60.42;29.88;;;;;;;4.75;66.16;100033.94;10386630;28;20084;-76
2021/11/12 14:41:47;;;;;;;55.15;29.35;;;;;;;4.92;66.14;100029.03;10386650;28;20494;-75
2021/11/12 14:52:09;;;;;;;53.88;29.15;;;;;;;4.92;66.71;100024.69;10386601;28;20494;-76
2021/11/12 15:02:23;;;;;;;48.83;28.13;;;;;;;4.91;66.50;100028.16;10387745;28;20461;-75
2021/11/12 15:07:29;;;;;;;35.70;25.23;;;;;;;4.97;66.27;100021.91;10382173;28;20049;-75
2021/11/12 15:12:30;;;;;;;34.22;24.05;;;;;;;4.84;66.56;100015.50;10381490;28;20502;-75
2021/11/12 15:17:32;;;;;;;35.05;23.45;;;;;;;4.88;66.51;100011.91;10384865;28;20297;-73
2021/11/12 15:22:55;;;;;;;39.08;23.98;;;;;;;4.81;66.46;100011.25;10378789;28;20455;-74
2021/11/12 15:28:04;;;;;;;37.03;24.02;;;;;;;4.91;66.60;100004.00;10381715;28;20140;-75
2021/11/12 15:33:14;;;;;;;38.95;23.88;;;;;;;4.94;66.31;100009.09;10383795;28;20140;-75
2021/11/12 15:38:21;;;;;;;38.00;25.10;;;;;;;4.89;66.49;99998.03;10381210;28;20049;-76
2021/11/12 15:48:33;;;;;;;34.33;22.52;;;;;;;4.92;66.80;99982.38;10385327;28;20152;-67
2021/11/12 16:14:32;;;;;;;28.05;19.08;;;;;;;4.14;67.49;100010.09;10382130;28;20061;-67
2021/11/12 16:19:42;;;;;;;28.20;18.40;;;;;;;4.10;67.47;100011.09;10380344;28;20565;-66
2021/11/12 16:29:58;;;;;;;;;;;;;;;3.49;68.29;100017.28;10382791;28;20099;-66
2021/11/12 16:35:01;;;;;;;25.88;16.70;;;;;;;3.64;67.95;100027.16;10382096;28;20019;-66
2021/11/12 16:40:25;;;;;;;22.83;15.52;;;;;;;3.55;67.59;100031.75;10380648;28;20120;-65
2021/11/12 17:11:22;;;;;;;29.30;17.10;;;;;;;3.32;68.04;100029.00;10382485;28;20064;-65
2021/11/12 17:48:10;;;;;;;29.38;17.27;;;;;;;3.35;67.99;100018.56;10397263;28;20672;-65
2021/11/12 17:54:08;;;;;;;25.55;16.35;;;;;;;3.39;67.74;100017.59;10383339;28;20180;-66
2021/11/12 18:04:12;;;;;;;28.73;16.38;;;;;;;3.15;68.21;100015.72;10382391;28;20052;-65
2021/11/12 21:44:44;;;;;;;24.38;14.50;;;;;;;3.04;66.79;99931.59;10386998;28;20087;-65
2021/11/12 21:49:46;;;;;;;25.80;15.48;;;;;;;3.09;66.54;99931.44;10384851;28;20054;-64
2021/11/12 21:54:48;;;;;;;24.88;14.98;;;;;;;3.10;66.41;99934.88;10387371;28;20525;-65
2021/11/12 21:59:50;;;;;;;29.65;15.43;;;;;;;3.21;66.17;99922.50;10386279;28;20537;-65
2021/11/12 22:04:52;;;;;;;26.50;16.13;;;;;;;3.17;66.29;99921.75;10386549;28;20055;-64
2021/11/12 22:09:54;;;;;;;23.13;14.73;;;;;;;3.28;66.18;99930.03;10386740;28;20407;-65
2021/11/12 22:14:55;;;;;;;24.85;14.15;;;;;;;3.26;66.00;99941.28;10385874;28;20169;-64
2021/11/12 22:19:57;;;;;;;24.80;14.43;;;;;;;3.27;66.19;99938.69;10385887;28;20413;-64
2021/11/12 22:24:59;;;;;;;23.45;14.68;;;;;;;3.34;65.74;99937.59;10386432;28;20045;-66
2021/11/12 22:30:01;;;;;;;26.52;14.75;;;;;;;3.36;65.73;99937.53;10385208;28;20420;-64
2021/11/12 22:35:04;;;;;;;25.92;15.52;;;;;;;3.39;65.47;99950.38;10384709;28;20053;-66
2021/11/12 22:40:08;;;;;;;23.48;14.43;;;;;;;3.25;65.82;99958.56;10385297;28;20072;-66
2021/11/12 22:45:10;;;;;;;22.63;13.57;;;;;;;3.40;65.65;99949.47;10385840;28;20056;-66
2021/11/12 22:50:12;;;;;;;25.73;14.70;;;;;;;3.49;65.44;99936.28;10384561;28;20048;-66
2021/11/12 22:55:14;;;;;;;25.65;14.75;;;;;;;3.32;65.59;99941.09;10384267;28;20064;-66
2021/11/12 23:00:25;;;;;;;35.03;21.05;;;;;;;3.24;65.75;99937.91;10384973;28;20053;-66
2021/11/12 23:05:27;;;;;;;29.80;18.63;;;;;;;3.24;65.80;99932.75;10383961;28;20063;-66
2021/11/12 23:10:29;;;;;;;23.58;14.18;;;;;;;3.23;65.91;99931.91;10384688;28;20099;-66
2021/11/12 23:15:31;;;;;;;22.52;13.93;;;;;;;3.20;65.67;99933.72;10383369;28;20053;-66
2021/11/12 23:20:32;;;;;;;23.50;15.20;;;;;;;3.19;65.91;99921.72;10384527;28;20132;-66
2021/11/12 23:25:34;;;;;;;23.67;13.93;;;;;;;3.16;65.59;99912.31;10384162;28;20064;-66
2021/11/12 23:30:36;;;;;;;24.65;15.95;;;;;;;3.08;65.65;99914.28;10383143;28;20053;-66
2021/11/12 23:35:39;;;;;;;24.15;13.02;;;;;;;2.96;65.75;99901.72;10382588;28;20060;-66
2021/11/12 23:40:41;;;;;;;21.70;13.23;;;;;;;2.93;65.93;99894.03;10382750;28;20501;-66
2021/11/12 23:45:43;;;;;;;23.90;14.43;;;;;;;2.91;66.07;99881.19;10383296;28;20049;-66
2021/11/12 23:50:45;;;;;;;45.13;27.38;;;;;;;2.84;65.88;99864.19;10383599;28;20050;-66
2021/11/12 23:55:47;;;;;;;36.78;26.42;;;;;;;2.76;65.95;99845.50;10391132;28;20092;-65
